Time;durP1;ratioP1;P1;durP2;ratioP2;P2;SDS_P1;SDS_P2;PMS_P1;PMS_P2;Temp;Humidity;BMP_temperature;BMP_pressure;BME280_temperature;BME280_humidity;BME280_pressure;Samples;Min_cycle;Max_cycle;Signal;HPM_P1;HPM_P2
2022/12/27 00:02:14;;;;;;;9.75;3.72;;;;;;;3.82;90.95;99249.88;5038367;28;20474;-82
2022/12/27 00:04:39;;;;;;;16.83;4.55;;;;;;;3.80;90.64;99239.50;5055552;28;20037;-81
2022/12/27 00:07:05;;;;;;;10.25;3.63;;;;;;;3.75;90.80;99249.84;5038965;28;20400;-81
2022/12/27 00:09:31;;;;;;;8.25;4.25;;;;;;;3.63;90.70;99247.94;5058781;28;20024;-81
2022/12/27 00:11:56;;;;;;;13.27;5.18;;;;;;;3.60;90.39;99250.97;5056201;28;20044;-81
2022/12/27 00:14:22;;;;;;;12.63;4.38;;;;;;;3.75;91.06;99249.84;5039057;28;20464;-81
2022/12/27 00:16:47;;;;;;;11.00;4.07;;;;;;;3.72;91.00;99275.81;5020793;28;20078;-81
2022/12/27 00:19:13;;;;;;;8.85;5.07;;;;;;;3.71;90.40;99258.34;5055083;28;20468;-81
2022/12/27 00:21:38;;;;;;;11.25;5.38;;;;;;;3.61;90.50;99263.16;5055279;28;20024;-81
2022/12/27 00:24:04;;;;;;;9.80;3.72;;;;;;;3.71;90.70;99266.28;5054466;28;20536;-81
2022/12/27 00:26:31;;;;;;;6.22;3.28;;;;;;;3.79;90.66;99266.09;5054247;28;20044;-81
2022/12/27 00:28:58;;;;;;;10.63;3.30;;;;;;;3.79;89.71;99269.56;5053916;28;20039;-80
2022/12/27 00:31:25;;;;;;;6.68;3.13;;;;;;;3.74;90.05;99276.41;5055208;28;20032;-81
2022/12/27 00:33:52;;;;;;;12.68;4.35;;;;;;;3.76;90.11;99269.13;5054252;28;20032;-81
2022/12/27 00:36:20;;;;;;;8.75;3.30;;;;;;;3.84;90.20;99284.00;5053584;28;20112;-81
2022/12/27 00:38:46;;;;;;;6.40;3.28;;;;;;;3.83;90.55;99280.53;5053258;28;20108;-82
2022/12/27 00:41:13;;;;;;;6.93;3.45;;;;;;;3.78;90.44;99278.47;5056626;28;20051;-82
2022/12/27 00:43:38;;;;;;;11.80;3.63;;;;;;;3.60;90.07;99272.88;5056495;28;20488;-82
2022/12/27 00:46:05;;;;;;;6.68;4.05;;;;;;;3.80;89.59;99273.00;5055193;28;20067;-82
2022/12/27 00:48:30;;;;;;;7.18;3.95;;;;;;;3.67;89.58;99275.56;5056856;28;20064;-81
2022/12/27 00:51:05;;;;;;;5.72;3.10;;;;;;;3.60;89.59;99278.16;5052676;28;20131;-82
2022/12/27 00:53:32;;;;;;;8.95;4.22;;;;;;;3.44;88.79;99294.31;5055757;28;20025;-81
2022/12/27 00:55:57;;;;;;;10.48;2.85;;;;;;;3.61;90.30;99290.34;5055392;28;20051;-81
2022/12/27 00:58:23;;;;;;;8.25;3.47;;;;;;;3.58;89.39;99296.00;5039031;28;20477;-81
2022/12/27 01:00:50;;;;;;;8.77;3.65;;;;;;;3.42;88.78;99298.13;5038805;28;20036;-80
2022/12/27 01:03:16;;;;;;;10.88;3.63;;;;;;;3.52;89.29;99290.69;5056068;28;20029;-81
2022/12/27 01:05:42;;;;;;;8.20;3.90;;;;;;;3.44;89.77;99288.19;5054901;28;20021;-81
2022/12/27 01:08:07;;;;;;;11.48;3.65;;;;;;;3.52;89.39;99285.41;5053901;28;20495;-81
2022/12/27 01:10:33;;;;;;;8.60;5.15;;;;;;;3.49;89.10;99299.00;5035411;28;20034;-81
2022/12/27 01:13:02;;;;;;;2.70;1.92;;;;;;;3.47;89.42;99295.75;5035560;28;20032;-81
2022/12/27 01:15:28;;;;;;;5.32;3.13;;;;;;;3.51;89.07;99302.28;5035304;28;20095;-80
2022/12/27 01:17:55;;;;;;;14.00;4.07;;;;;;;3.41;89.48;99307.88;5036678;28;20049;-80
2022/12/27 01:20:20;;;;;;;6.95;3.30;;;;;;;3.46;89.21;99312.56;5036453;28;20088;-80
2022/12/27 01:22:46;;;;;;;7.80;3.35;;;;;;;3.36;88.21;99305.00;5035275;28;20115;-80
2022/12/27 01:25:11;;;;;;;11.25;3.58;;;;;;;3.41;89.42;99296.50;5021359;28;20038;-82
2022/12/27 01:27:37;;;;;;;8.43;3.20;;;;;;;3.31;88.97;99298.66;5053730;28;20476;-81
2022/12/27 01:30:04;;;;;;;9.40;3.72;;;;;;;3.44;89.18;99296.94;5055668;28;20021;-82
2022/12/27 01:32:34;;;;;;;12.63;3.45;;;;;;;3.36;89.02;99302.38;5055556;28;20029;-81
2022/12/27 01:35:00;;;;;;;12.75;6.13;;;;;;;3.45;88.77;99295.91;5037854;28;20468;-81
2022/12/27 01:37:28;;;;;;;7.85;3.60;;;;;;;3.31;89.01;99288.94;5053861;28;20025;-81
2022/12/27 01:39:54;;;;;;;15.55;3.97;;;;;;;3.39;88.63;99294.06;5055555;28;20032;-81
2022/12/27 01:45:34;;;;;;;7.63;4.38;;;;;;;3.27;88.68;99310.59;5039794;28;20040;-81
2022/12/27 01:48:11;;;;;;;8.30;4.10;;;;;;;3.21;88.73;99314.78;5041581;28;20458;-81
2022/12/27 01:50:50;;;;;;;12.27;4.75;;;;;;;3.29;89.15;99313.84;5055317;28;20040;-81
2022/12/27 01:53:28;;;;;;;9.50;4.47;;;;;;;3.28;88.50;99314.84;5054727;28;20036;-81
2022/12/27 01:56:07;;;;;;;13.43;5.22;;;;;;;3.22;89.00;99324.34;5054647;28;20032;-81
2022/12/27 01:58:45;;;;;;;10.23;4.35;;;;;;;2.92;88.15;99318.41;5050975;28;20028;-82
2022/12/27 02:01:29;;;;;;;6.93;4.10;;;;;;;3.21;89.11;99327.97;5054162;28;20653;-82
2022/12/27 02:04:10;;;;;;;14.48;5.78;;;;;;;3.13;88.46;99322.03;5054400;28;20392;-82
2022/12/27 02:06:38;;;;;;;10.35;4.25;;;;;;;3.09;89.12;99318.97;5036506;28;20049;-80
2022/12/27 02:09:20;;;;;;;12.63;4.88;;;;;;;3.20;89.25;99331.66;5053723;28;20115;-82
2022/12/27 02:11:50;;;;;;;8.13;4.78;;;;;;;3.29;88.68;99333.16;5054616;28;20061;-80
2022/12/27 02:14:32;;;;;;;8.98;4.05;;;;;;;3.03;88.62;99320.53;5052704;28;20048;-81
2022/12/27 02:17:02;;;;;;;15.85;5.45;;;;;;;3.14;88.71;99327.13;5052157;28;20107;-81
2022/12/27 02:19:56;;;;;;;11.68;4.45;;;;;;;2.88;87.74;99325.03;5052853;28;20029;-80
2022/12/27 02:25:49;;;;;;;5.72;3.88;;;;;;;3.00;87.78;99343.81;5054439;28;20036;-81
2022/12/27 02:28:40;;;;;;;9.52;4.28;;;;;;;2.77;88.41;99315.00;5053612;28;20180;-80
2022/12/27 02:31:13;;;;;;;14.65;3.40;;;;;;;2.93;89.30;99327.94;5054155;28;20473;-81
2022/12/27 02:33:45;;;;;;;10.27;6.10;;;;;;;3.05;88.32;99341.44;5050602;28;20318;-80
2022/12/27 02:36:19;;;;;;;14.70;3.85;;;;;;;3.08;89.43;99333.13;5052236;28;20064;-80
2022/12/27 02:38:49;;;;;;;9.63;3.70;;;;;;;3.13;88.45;99333.41;5051363;28;20453;-80
2022/12/27 02:59:17;;;;;;;8.85;3.90;;;;;;;2.96;88.60;99348.66;5054082;28;20109;-80
2022/12/27 03:04:49;;;;;;;11.75;3.40;;;;;;;2.85;89.25;99354.41;5053365;28;20044;-81
2022/12/27 03:07:23;;;;;;;14.20;3.90;;;;;;;2.90;89.78;99344.16;5048954;28;20429;-80
2022/12/27 03:16:00;;;;;;;5.00;2.15;;;;;;;2.76;89.16;99363.44;5054361;28;20044;-81
2022/12/27 03:18:31;;;;;;;8.00;3.47;;;;;;;2.92;89.39;99370.31;5048021;28;20052;-81
2022/12/27 03:26:32;;;;;;;7.22;3.35;;;;;;;2.81;89.35;99362.88;5054035;28;20075;-81
2022/12/27 03:34:42;;;;;;;10.27;4.30;;;;;;;2.84;89.35;99354.63;5054083;28;20090;-80
2022/12/27 03:40:05;;;;;;;8.30;3.85;;;;;;;2.81;89.22;99366.34;5054119;28;20131;-80
2022/12/27 03:45:20;;;;;;;11.65;4.40;;;;;;;2.78;89.77;99366.72;5051774;28;20103;-81
2022/12/27 03:48:04;;;;;;;6.47;4.05;;;;;;;2.62;89.43;99351.09;5052588;28;20568;-80
2022/12/27 03:50:43;;;;;;;4.82;3.90;;;;;;;2.65;88.86;99361.28;5053967;28;20100;-80
2022/12/27 03:53:20;;;;;;;8.95;3.70;;;;;;;2.91;89.09;99366.03;5052210;28;20070;-80
2022/12/27 03:55:46;;;;;;;12.98;4.60;;;;;;;2.79;89.34;99368.34;5053648;28;20298;-80
2022/12/27 03:58:11;;;;;;;11.05;4.63;;;;;;;2.70;88.83;99366.81;5035260;28;20090;-80
2022/12/27 04:00:37;;;;;;;9.75;2.95;;;;;;;2.78;89.16;99379.88;5052821;28;20392;-80
2022/12/27 04:03:03;;;;;;;10.90;4.10;;;;;;;2.78;89.48;99369.34;5053767;28;20053;-80
2022/12/27 04:05:28;;;;;;;11.60;4.10;;;;;;;2.71;89.03;99376.34;5051572;28;20050;-80
2022/12/27 04:35:13;;;;;;;6.80;4.15;;;;;;;2.76;88.87;99387.16;5053059;28;20068;-80
2022/12/27 04:37:39;;;;;;;9.57;4.55;;;;;;;2.77;89.01;99391.44;5052451;28;20025;-80
2022/12/27 04:56:28;;;;;;;5.70;3.95;;;;;;;2.76;88.96;99387.16;5054507;28;20036;-80
2022/12/27 05:04:25;;;;;;;9.90;4.25;;;;;;;2.72;89.01;99395.63;5040971;28;20036;-82
2022/12/27 05:06:50;;;;;;;5.78;3.53;;;;;;;2.72;89.10;99398.25;5054889;28;20059;-81
2022/12/27 05:14:43;;;;;;;11.00;3.70;;;;;;;2.74;89.19;99399.72;5048646;28;20068;-82
2022/12/27 05:17:09;;;;;;;7.60;4.05;;;;;;;2.77;89.27;99420.44;5037474;28;20064;-82
2022/12/27 05:19:34;;;;;;;11.13;4.18;;;;;;;2.83;89.44;99414.41;5057082;28;20032;-81
2022/12/27 05:27:28;;;;;;;6.50;4.70;;;;;;;2.78;90.04;99419.41;5054591;28;20039;-81
2022/12/27 05:29:53;;;;;;;6.15;4.13;;;;;;;2.76;89.63;99421.44;5055246;28;20029;-81
2022/12/27 05:32:18;;;;;;;11.80;3.92;;;;;;;2.81;89.73;99426.97;5055056;28;20516;-82
2022/12/27 05:34:44;;;;;;;10.25;4.47;;;;;;;2.63;89.34;99413.34;5054362;28;20412;-82
2022/12/27 05:37:09;;;;;;;9.73;3.58;;;;;;;2.71;89.82;99415.88;5034856;28;20116;-82
2022/12/27 05:39:34;;;;;;;8.40;3.90;;;;;;;2.77;90.11;99407.25;5037551;28;20021;-81
2022/12/27 05:42:00;;;;;;;8.95;3.58;;;;;;;2.74;89.83;99426.06;5038045;28;20493;-81
2022/12/27 05:44:25;;;;;;;8.82;3.72;;;;;;;2.76;89.38;99433.78;5055674;28;20037;-81
2022/12/27 05:46:53;;;;;;;11.75;4.45;;;;;;;2.63;90.29;99425.72;5056139;28;20028;-81
2022/12/27 05:49:18;;;;;;;7.68;3.58;;;;;;;2.70;90.25;99435.34;5034603;28;20029;-81
2022/12/27 05:51:43;;;;;;;6.38;3.88;;;;;;;2.94;89.94;99436.84;5054380;28;20370;-81
2022/12/27 05:54:09;;;;;;;13.43;4.43;;;;;;;2.91;89.99;99429.28;5054147;28;20035;-81
2022/12/27 05:56:36;;;;;;;10.55;4.07;;;;;;;2.98;89.94;99424.91;5054193;28;20052;-81
2022/12/27 05:59:01;;;;;;;14.85;3.83;;;;;;;2.86;89.41;99432.47;5037901;28;20104;-81
2022/12/27 06:01:27;;;;;;;10.43;4.18;;;;;;;2.86;89.78;99429.06;5055018;28;20056;-81
2022/12/27 06:03:52;;;;;;;9.80;4.38;;;;;;;2.91;90.45;99424.84;5036841;28;20029;-81
2022/12/27 06:06:18;;;;;;;11.30;4.40;;;;;;;3.06;90.40;99432.72;5017291;28;20044;-82
2022/12/27 06:08:43;;;;;;;10.95;4.30;;;;;;;2.84;90.57;99423.94;5035161;28;20115;-82
2022/12/27 06:11:11;;;;;;;8.57;4.00;;;;;;;2.84;90.58;99431.84;5033606;28;20125;-82
2022/12/27 06:13:38;;;;;;;12.15;4.05;;;;;;;2.84;90.79;99431.84;5034695;28;20029;-82
2022/12/27 06:16:09;;;;;;;11.80;3.42;;;;;;;2.89;90.46;99440.03;5033597;28;20489;-81
2022/12/27 06:18:36;;;;;;;5.05;3.95;;;;;;;2.88;90.51;99453.41;5037874;28;20043;-81
2022/12/27 06:21:10;;;;;;;8.98;3.63;;;;;;;2.77;90.40;99446.78;5054580;28;20037;-82
2022/12/27 06:23:38;;;;;;;7.35;3.40;;;;;;;2.93;90.56;99451.84;5037603;28;20091;-81
2022/12/27 06:26:05;;;;;;;10.15;5.57;;;;;;;2.90;90.92;99448.78;5054500;28;20073;-80
2022/12/27 06:28:30;;;;;;;10.15;4.43;;;;;;;2.87;90.54;99455.22;5054057;28;20027;-80
2022/12/27 06:30:58;;;;;;;13.85;4.63;;;;;;;2.82;90.49;99452.31;5036803;28;20119;-80
2022/12/27 06:33:23;;;;;;;11.30;4.22;;;;;;;2.91;90.85;99453.03;5052997;28;20032;-80
2022/12/27 06:35:49;;;;;;;11.57;4.03;;;;;;;2.87;90.19;99452.59;5054056;28;20428;-81
2022/12/27 06:38:14;;;;;;;10.10;4.72;;;;;;;2.87;90.47;99436.75;5052488;28;20071;-80
2022/12/27 06:40:39;;;;;;;10.13;4.88;;;;;;;2.85;90.71;99457.22;5036034;28;20025;-80
2022/12/27 06:43:05;;;;;;;6.55;3.78;;;;;;;2.89;90.06;99432.13;5053785;28;20108;-81
2022/12/27 06:45:30;;;;;;;5.63;3.72;;;;;;;2.89;90.04;99439.22;5035886;28;20347;-80
2022/12/27 06:47:55;;;;;;;5.85;2.97;;;;;;;3.01;90.55;99450.94;5034990;28;20028;-80
2022/12/27 06:50:21;;;;;;;5.93;4.05;;;;;;;2.91;90.21;99443.31;5052285;28;20032;-82
2022/12/27 06:52:46;;;;;;;9.25;4.70;;;;;;;2.87;90.55;99438.59;5051551;28;20035;-82
2022/12/27 06:55:11;;;;;;;7.72;4.68;;;;;;;2.95;90.52;99459.56;5049768;28;20043;-81
2022/12/27 06:57:37;;;;;;;10.43;4.75;;;;;;;2.87;90.66;99452.59;5018645;28;20125;-80
2022/12/27 07:00:03;;;;;;;15.20;5.32;;;;;;;2.92;90.31;99450.22;5032275;28;20028;-81
2022/12/27 07:02:28;;;;;;;6.95;4.43;;;;;;;2.94;89.97;99464.03;5051591;28;20032;-80
2022/12/27 07:04:54;;;;;;;9.32;4.38;;;;;;;2.90;90.60;99454.03;5051367;28;20416;-80
2022/12/27 07:07:19;;;;;;;10.25;4.63;;;;;;;2.94;90.25;99474.56;5034320;28;20029;-80
2022/12/27 07:09:44;;;;;;;7.13;4.35;;;;;;;3.00;90.54;99476.47;5051549;28;20386;-81
2022/12/27 07:12:10;;;;;;;10.23;4.03;;;;;;;2.93;90.23;99469.47;5052845;28;20522;-81
2022/12/27 07:14:35;;;;;;;9.85;4.05;;;;;;;2.98;90.35;99475.84;5053200;28;20441;-81
2022/12/27 07:17:01;;;;;;;10.38;3.65;;;;;;;2.91;90.33;99460.94;5051965;28;20124;-81
2022/12/27 07:19:26;;;;;;;10.82;3.95;;;;;;;2.99;90.43;99474.81;5031194;28;20108;-80
2022/12/27 07:21:51;;;;;;;3.78;2.90;;;;;;;3.03;90.58;99478.75;5053044;28;20040;-81
2022/12/27 07:24:16;;;;;;;6.22;3.50;;;;;;;2.96;89.88;99472.56;5036104;28;20388;-81
2022/12/27 07:26:42;;;;;;;7.72;4.15;;;;;;;2.94;90.43;99471.13;5020186;28;20064;-80
2022/12/27 07:29:08;;;;;;;7.60;4.05;;;;;;;3.02;90.01;99478.91;5036593;28;20459;-80
2022/12/27 07:31:34;;;;;;;8.30;3.80;;;;;;;2.95;90.17;99493.81;5052494;28;20053;-82
2022/12/27 07:34:01;;;;;;;6.75;3.67;;;;;;;2.94;90.16;99486.94;5043476;28;20065;-81
2022/12/27 07:36:36;;;;;;;12.27;4.32;;;;;;;3.04;90.27;99498.00;5042743;28;20021;-81
2022/12/27 07:39:02;;;;;;;8.68;3.25;;;;;;;2.96;90.29;99496.31;5055209;28;20082;-82
2022/12/27 07:41:27;;;;;;;6.95;4.00;;;;;;;2.83;90.32;99492.66;5037294;28;20035;-81
2022/12/27 07:43:53;;;;;;;14.50;4.63;;;;;;;2.90;90.10;99512.88;5053213;28;20029;-81
2022/12/27 07:46:21;;;;;;;8.40;4.40;;;;;;;3.07;90.70;99517.91;5054659;28;20366;-81
2022/12/27 07:48:47;;;;;;;8.80;3.90;;;;;;;3.10;90.69;99528.09;5052870;28;20028;-81
2022/12/27 07:51:13;;;;;;;9.15;5.40;;;;;;;3.03;90.19;99528.84;5052832;28;20040;-81
2022/12/27 07:53:39;;;;;;;9.65;3.92;;;;;;;3.12;90.61;99529.56;5052026;28;20025;-81
2022/12/27 07:56:26;;;;;;;15.45;4.47;;;;;;;3.04;90.65;99524.38;5036230;28;20029;-81
2022/12/27 07:58:52;;;;;;;9.65;4.50;;;;;;;3.09;90.71;99523.81;5053345;28;20021;-81
2022/12/27 08:01:20;;;;;;;11.52;4.93;;;;;;;3.14;91.17;99524.91;5052609;28;20037;-81
2022/12/27 08:03:45;;;;;;;7.78;4.05;;;;;;;3.13;90.82;99527.72;5051860;28;20017;-82
2022/12/27 08:06:37;;;;;;;8.88;4.43;;;;;;;3.07;90.27;99531.09;5035315;28;20059;-81
2022/12/27 08:09:05;;;;;;;7.85;4.10;;;;;;;3.14;90.56;99534.66;5049394;28;20136;-82
2022/12/27 08:11:30;;;;;;;6.30;4.18;;;;;;;3.13;91.18;99535.63;5035891;28;20380;-81
2022/12/27 08:13:56;;;;;;;8.20;5.47;;;;;;;3.21;90.34;99538.97;5054549;28;20040;-81
2022/12/27 08:16:23;;;;;;;6.10;4.72;;;;;;;3.14;90.81;99539.91;5057042;28;20496;-80
2022/12/27 08:18:49;;;;;;;8.07;5.03;;;;;;;3.12;90.63;99536.66;5055464;28;20036;-80
2022/12/27 08:21:15;;;;;;;13.80;6.35;;;;;;;3.04;90.75;99535.75;5056318;28;20086;-81
2022/12/27 08:23:41;;;;;;;11.50;5.22;;;;;;;3.07;91.38;99542.47;5057179;28;20499;-81
2022/12/27 08:26:07;;;;;;;16.15;5.57;;;;;;;3.08;90.91;99559.91;5022312;28;20390;-81
2022/12/27 08:28:33;;;;;;;5.72;4.35;;;;;;;3.04;91.54;99558.66;5056217;28;20029;-80
2022/12/27 08:30:59;;;;;;;10.38;5.50;;;;;;;2.92;91.50;99555.69;5055868;28;20055;-81
2022/12/27 08:33:25;;;;;;;3.65;3.35;;;;;;;3.13;91.52;99572.56;5037804;28;20036;-82
2022/12/27 08:35:51;;;;;;;8.82;4.97;;;;;;;3.05;91.09;99562.94;5053682;28;20025;-81
2022/12/27 08:38:17;;;;;;;10.50;4.93;;;;;;;3.06;91.50;99559.28;5054812;28;20096;-80
2022/12/27 08:40:44;;;;;;;6.93;4.25;;;;;;;3.09;91.10;99571.28;5054586;28;20036;-80
2022/12/27 08:43:10;;;;;;;7.70;4.40;;;;;;;3.14;91.19;99571.56;5039255;28;20025;-82
2022/12/27 08:45:37;;;;;;;2.97;2.30;;;;;;;3.11;91.57;99575.38;5056243;28;20086;-81
2022/12/27 08:48:03;;;;;;;7.38;4.57;;;;;;;3.07;91.02;99573.28;5054299;28;20025;-80
2022/12/27 08:50:30;;;;;;;9.05;5.22;;;;;;;3.15;91.75;99587.19;5038081;28;20025;-80
2022/12/27 08:52:57;;;;;;;6.22;4.55;;;;;;;3.20;91.48;99571.66;5054853;28;20033;-80
2022/12/27 08:55:22;;;;;;;6.28;4.72;;;;;;;3.15;91.49;99583.75;5054532;28;20039;-81
2022/12/27 08:57:47;;;;;;;11.80;5.20;;;;;;;3.14;91.24;99588.22;5053650;28;20086;-80
2022/12/27 09:00:13;;;;;;;18.45;6.32;;;;;;;3.10;91.62;99579.03;5036000;28;20036;-80
2022/12/27 09:02:39;;;;;;;12.13;5.55;;;;;;;3.15;91.17;99604.84;5034075;28;20029;-80
2022/12/27 09:05:04;;;;;;;11.10;7.22;;;;;;;3.23;91.39;99596.84;5033534;28;20032;-81
2022/12/27 09:07:31;;;;;;;8.80;5.80;;;;;;;3.10;91.84;99597.50;5033660;28;20113;-80
2022/12/27 09:09:56;;;;;;;12.68;7.03;;;;;;;3.16;91.38;99599.41;5033525;28;20584;-80
2022/12/27 09:12:21;;;;;;;8.13;5.10;;;;;;;3.22;91.45;99596.03;5016239;28;20061;-81
2022/12/27 09:14:47;;;;;;;14.10;7.20;;;;;;;3.24;91.52;99606.38;5033546;28;20044;-82
2022/12/27 09:17:12;;;;;;;10.00;6.20;;;;;;;3.27;91.12;99616.59;5037263;28;20115;-82
2022/12/27 09:19:38;;;;;;;10.95;6.63;;;;;;;3.22;91.91;99616.31;5052481;28;20491;-80
2022/12/27 09:22:03;;;;;;;17.75;8.75;;;;;;;3.21;90.86;99619.97;5052701;28;20082;-80
2022/12/27 09:24:28;;;;;;;19.15;10.23;;;;;;;3.21;91.23;99627.88;5051917;28;20035;-81
2022/12/27 09:26:54;;;;;;;15.13;8.15;;;;;;;3.33;91.11;99624.59;5053150;28;20036;-81
2022/12/27 09:29:21;;;;;;;17.48;6.50;;;;;;;3.35;91.36;99637.59;5020483;28;20091;-81
2022/12/27 09:31:46;;;;;;;11.90;6.47;;;;;;;3.37;91.65;99641.69;5038005;28;20039;-80
2022/12/27 09:34:11;;;;;;;8.60;5.72;;;;;;;3.39;91.34;99644.94;5054785;28;20104;-81
2022/12/27 09:36:38;;;;;;;8.15;5.72;;;;;;;3.34;91.22;99638.59;5054076;28;20040;-81
2022/12/27 09:39:04;;;;;;;12.88;5.50;;;;;;;3.39;91.76;99652.88;5055048;28;20025;-81
2022/12/27 09:41:48;;;;;;;8.93;5.45;;;;;;;3.47;91.37;99647.47;5021890;28;20037;-82
2022/12/27 09:44:17;;;;;;;8.95;6.53;;;;;;;3.45;91.36;99651.34;5056088;28;20031;-81
2022/12/27 09:46:46;;;;;;;10.80;5.30;;;;;;;3.38;91.07;99653.06;5055454;28;20028;-81
2022/12/27 09:49:16;;;;;;;8.50;4.55;;;;;;;3.37;91.48;99641.69;5054806;28;20198;-81
2022/12/27 09:51:51;;;;;;;9.88;4.78;;;;;;;3.48;91.48;99650.94;5048667;28;20036;-81
2022/12/27 09:54:30;;;;;;;10.52;4.18;;;;;;;3.46;91.09;99643.22;5054472;28;20043;-81
2022/12/27 09:56:59;;;;;;;7.55;4.80;;;;;;;3.38;91.57;99645.13;5053626;28;20441;-81
2022/12/27 09:59:34;;;;;;;10.25;5.47;;;;;;;3.53;91.20;99645.94;5038608;28;20025;-81
2022/12/27 10:02:00;;;;;;;10.63;4.30;;;;;;;3.43;91.37;99648.06;5054661;28;20128;-81
2022/12/27 10:04:32;;;;;;;6.95;4.28;;;;;;;3.52;91.34;99642.47;5052984;28;20071;-81
2022/12/27 10:07:09;;;;;;;8.00;4.13;;;;;;;3.47;91.32;99641.41;5050072;28;20083;-81
2022/12/27 10:09:50;;;;;;;22.42;5.30;;;;;;;3.51;91.70;99640.03;5048414;28;20060;-81
2022/12/27 10:12:57;;;;;;;8.07;4.38;;;;;;;3.59;91.58;99639.94;5054225;28;20503;-81
2022/12/27 10:15:49;;;;;;;11.93;6.30;;;;;;;3.65;91.85;99641.81;5052344;28;20472;-81
2022/12/27 10:18:52;;;;;;;13.65;6.40;;;;;;;3.65;91.51;99640.00;5054202;28;20068;-81
2022/12/27 10:21:22;;;;;;;10.93;6.55;;;;;;;3.63;91.33;99649.09;5053484;28;20028;-80
2022/12/27 10:24:18;;;;;;;11.27;7.40;;;;;;;3.67;90.91;99637.16;5053445;28;20480;-82
2022/12/27 10:26:43;;;;;;;8.98;6.30;;;;;;;3.71;90.86;99649.03;5053378;28;20021;-81
2022/12/27 10:29:24;;;;;;;9.95;6.43;;;;;;;3.61;91.49;99648.47;5052647;28;20031;-81
2022/12/27 10:31:50;;;;;;;12.35;6.00;;;;;;;3.72;90.90;99654.13;5053113;28;20025;-81
2022/12/27 10:34:23;;;;;;;11.43;6.97;;;;;;;3.71;91.21;99644.53;5054077;28;20515;-81
2022/12/27 10:36:49;;;;;;;10.75;6.03;;;;;;;3.77;91.56;99648.28;5019349;28;20039;-81
2022/12/27 10:39:19;;;;;;;13.77;7.63;;;;;;;3.84;91.27;99635.97;5052356;28;20039;-80
2022/12/27 10:41:56;;;;;;;12.48;6.32;;;;;;;3.89;91.40;99625.66;5054399;28;20033;-80
2022/12/27 10:44:22;;;;;;;10.38;6.20;;;;;;;3.91;91.40;99623.66;5052644;28;20032;-81
2022/12/27 10:46:51;;;;;;;16.88;5.68;;;;;;;3.94;92.13;99628.56;5053735;28;20048;-80
2022/12/27 10:49:28;;;;;;;9.02;5.97;;;;;;;3.83;91.44;99621.13;5053966;28;20025;-80
2022/12/27 10:51:57;;;;;;;11.00;6.28;;;;;;;3.87;91.65;99611.03;5053379;28;20036;-80
2022/12/27 10:54:28;;;;;;;9.07;5.72;;;;;;;4.01;90.81;99615.44;5053065;28;20029;-80
2022/12/27 10:56:55;;;;;;;12.18;5.72;;;;;;;4.01;91.52;99615.44;5052059;28;20128;-80
2022/12/27 10:59:24;;;;;;;7.63;5.70;;;;;;;4.05;91.18;99624.59;5052098;28;20484;-80
2022/12/27 11:01:58;;;;;;;11.52;5.57;;;;;;;4.08;91.35;99614.50;5019190;28;20036;-80
2022/12/27 11:04:24;;;;;;;10.13;5.82;;;;;;;4.19;90.51;99611.38;5051168;28;20032;-80
2022/12/27 11:07:10;;;;;;;5.53;4.93;;;;;;;4.09;90.77;99618.75;5049777;28;20047;-80
2022/12/27 11:09:38;;;;;;;6.50;4.55;;;;;;;4.14;90.68;99629.59;5036409;28;20044;-80
2022/12/27 11:12:10;;;;;;;7.75;5.30;;;;;;;4.20;90.55;99631.47;5051763;28;20322;-80
2022/12/27 11:14:36;;;;;;;12.00;5.07;;;;;;;4.20;89.64;99615.63;5053062;28;20380;-80
2022/12/27 11:17:07;;;;;;;15.38;6.25;;;;;;;4.12;90.76;99609.66;5018574;28;20033;-80
2022/12/27 11:19:32;;;;;;;10.32;4.80;;;;;;;4.14;90.34;99613.75;5051831;28;20025;-80
2022/12/27 11:22:04;;;;;;;14.90;4.72;;;;;;;4.30;89.86;99634.63;5050524;28;20055;-80
2022/12/27 11:24:30;;;;;;;6.25;4.43;;;;;;;4.33;90.03;99636.88;5050804;28;20495;-80
2022/12/27 11:26:58;;;;;;;5.18;4.00;;;;;;;4.23;89.73;99641.69;5017986;28;20029;-80
2022/12/27 11:29:26;;;;;;;7.65;4.55;;;;;;;4.30;90.23;99645.19;5051141;28;20116;-81
2022/12/27 11:31:53;;;;;;;11.65;5.43;;;;;;;4.34;89.77;99641.19;5045115;28;20033;-82
2022/12/27 11:34:35;;;;;;;8.90;5.50;;;;;;;4.22;89.65;99640.03;5050498;28;20021;-81
2022/12/27 11:37:14;;;;;;;9.30;4.93;;;;;;;4.22;90.16;99628.63;5051562;28;20048;-81
2022/12/27 11:40:11;;;;;;;15.65;8.80;;;;;;;4.21;90.35;99650.78;5052025;28;20035;-82
2022/12/27 11:42:42;;;;;;;12.65;7.70;;;;;;;4.39;90.04;99649.34;5050696;28;20025;-80
2022/12/27 11:45:11;;;;;;;12.55;6.80;;;;;;;4.42;89.57;99642.88;5051162;28;20028;-80
2022/12/27 11:47:48;;;;;;;13.43;7.75;;;;;;;4.32;89.06;99643.19;5053813;28;20036;-80
2022/12/27 11:50:23;;;;;;;9.48;7.15;;;;;;;4.41;88.98;99639.41;5054622;28;20056;-80
2022/12/27 11:53:06;;;;;;;13.45;8.35;;;;;;;4.42;89.52;99641.03;5057646;28;20084;-80
2022/12/27 11:55:43;;;;;;;12.02;6.80;;;;;;;4.50;89.02;99645.38;5056094;28;20021;-80
2022/12/27 11:58:30;;;;;;;11.30;7.07;;;;;;;4.34;88.18;99638.53;5057818;28;20025;-81
2022/12/27 12:01:20;;;;;;;7.90;5.20;;;;;;;4.41;88.98;99649.16;5057736;28;20032;-80
2022/12/27 12:04:09;;;;;;;12.82;7.78;;;;;;;4.24;87.55;99632.72;5056685;28;20434;-80
2022/12/27 12:07:02;;;;;;;16.55;8.55;;;;;;;4.33;89.07;99628.13;5055050;28;20029;-81
2022/12/27 12:10:01;;;;;;;14.40;7.28;;;;;;;4.41;89.46;99638.59;5056729;28;20036;-80
2022/12/27 12:13:04;;;;;;;14.23;7.80;;;;;;;4.18;89.11;99636.13;5055528;28;20025;-80
2022/12/27 12:15:47;;;;;;;6.40;5.30;;;;;;;4.09;89.76;99634.63;5055044;28;20021;-81
2022/12/27 12:18:21;;;;;;;14.15;7.38;;;;;;;4.19;90.87;99642.25;5055637;28;20028;-82
2022/12/27 12:21:16;;;;;;;13.82;7.15;;;;;;;3.93;89.53;99634.88;5056235;28;20020;-81
2022/12/27 12:23:47;;;;;;;12.65;6.63;;;;;;;4.14;90.88;99636.69;5055379;28;20052;-80
2022/12/27 12:26:18;;;;;;;7.90;5.05;;;;;;;4.08;89.53;99646.19;5056630;28;20522;-80
2022/12/27 12:28:50;;;;;;;9.70;6.93;;;;;;;4.18;90.26;99640.59;5056398;28;20440;-80
2022/12/27 12:31:46;;;;;;;11.35;5.63;;;;;;;4.14;89.63;99639.34;5055368;28;20107;-81
2022/12/27 12:34:24;;;;;;;11.48;6.13;;;;;;;4.20;90.31;99641.22;5048839;28;20351;-80
2022/12/27 12:37:23;;;;;;;8.88;5.47;;;;;;;4.27;90.38;99627.09;5055396;28;20025;-81
2022/12/27 12:40:00;;;;;;;8.50;4.88;;;;;;;4.39;89.22;99641.41;5055543;28;20039;-81
2022/12/27 12:42:44;;;;;;;8.45;5.00;;;;;;;4.37;89.65;99647.88;5056754;28;20028;-81
2022/12/27 12:45:22;;;;;;;6.95;4.72;;;;;;;4.23;89.41;99638.22;5056418;28;20395;-81
2022/12/27 12:48:08;;;;;;;6.38;4.55;;;;;;;4.25;89.75;99639.66;5055667;28;20032;-80
2022/12/27 12:51:00;;;;;;;7.43;4.15;;;;;;;4.41;90.24;99641.25;5054126;28;20021;-81
2022/12/27 12:53:25;;;;;;;8.82;5.18;;;;;;;4.43;89.86;99641.88;5055453;28;20036;-81
2022/12/27 12:56:11;;;;;;;7.03;3.80;;;;;;;4.32;90.18;99643.19;5055975;28;20025;-81
2022/12/27 12:58:49;;;;;;;6.88;4.43;;;;;;;4.37;89.00;99635.50;5055631;28;20029;-81
2022/12/27 13:01:17;;;;;;;10.10;4.13;;;;;;;4.37;88.70;99645.25;5054483;28;20047;-80
2022/12/27 13:04:28;;;;;;;8.18;4.15;;;;;;;4.40;89.01;99636.94;5054689;28;20055;-81
2022/12/27 13:07:01;;;;;;;4.57;3.45;;;;;;;4.41;89.13;99626.19;5026033;28;20049;-82
2022/12/27 13:09:38;;;;;;;7.90;4.55;;;;;;;4.39;88.81;99625.56;5035558;28;20033;-82
2022/12/27 13:12:19;;;;;;;12.57;4.28;;;;;;;4.43;88.83;99634.72;5034233;28;20030;-81
2022/12/27 13:14:48;;;;;;;9.80;4.18;;;;;;;4.45;87.57;99637.22;5034171;28;20060;-82
2022/12/27 13:17:38;;;;;;;6.50;4.88;;;;;;;4.64;88.60;99633.91;5037914;28;20116;-82
2022/12/27 13:20:32;;;;;;;10.10;4.18;;;;;;;4.61;88.62;99623.72;5052870;28;20112;-82
2022/12/27 13:23:10;;;;;;;8.43;4.55;;;;;;;4.56;88.54;99634.84;5054128;28;20052;-80
2022/12/27 13:25:52;;;;;;;5.38;3.80;;;;;;;4.48;87.79;99616.50;5053330;28;20086;-80
2022/12/27 13:28:35;;;;;;;10.93;4.63;;;;;;;4.51;88.21;99610.84;5054709;28;20021;-80
2022/12/27 13:31:16;;;;;;;6.65;3.72;;;;;;;4.66;87.46;99617.84;5044834;28;20029;-80
2022/12/27 13:34:07;;;;;;;6.70;3.97;;;;;;;4.56;87.99;99612.91;5046676;28;20033;-80
2022/12/27 13:36:49;;;;;;;5.93;3.90;;;;;;;4.63;88.57;99608.47;5054665;28;20511;-80
2022/12/27 13:39:50;;;;;;;6.78;3.72;;;;;;;4.46;87.88;99613.22;5053242;28;20090;-80
2022/12/27 13:42:39;;;;;;;4.20;3.75;;;;;;;4.60;88.93;99613.34;5039461;28;20039;-80
2022/12/27 13:45:48;;;;;;;7.63;3.85;;;;;;;4.59;89.25;99617.00;5052989;28;20116;-80
2022/12/27 13:48:35;;;;;;;6.43;4.57;;;;;;;4.47;88.43;99614.06;5044534;28;20110;-80
2022/12/27 13:51:38;;;;;;;8.40;4.13;;;;;;;4.52;88.85;99617.75;5054000;28;20024;-82